createdAt,value
2019-03-21T00:00:51.590Z,10.80
2019-03-21T00:03:21.042Z,10.80
2019-03-21T00:05:50.158Z,10.80
2019-03-21T00:08:19.399Z,10.90
2019-03-21T00:11:11.307Z,10.70
2019-03-21T00:13:40.533Z,10.70
2019-03-21T00:16:14.144Z,10.70
2019-03-21T00:18:43.449Z,10.60
2019-03-21T00:21:12.694Z,10.60
2019-03-21T00:23:42.488Z,10.60
2019-03-21T00:26:11.788Z,10.60
2019-03-21T00:28:40.998Z,10.50
2019-03-21T00:31:10.146Z,10.50
2019-03-21T00:33:39.267Z,10.50
2019-03-21T00:36:08.442Z,10.50
2019-03-21T00:38:37.594Z,10.60
2019-03-21T00:41:06.941Z,10.60
2019-03-21T00:43:36.073Z,10.50
2019-03-21T00:46:05.301Z,10.50
2019-03-21T00:48:34.375Z,10.50
2019-03-21T00:51:03.623Z,10.50
2019-03-21T00:53:32.766Z,10.50
2019-03-21T00:56:02.430Z,10.40
2019-03-21T00:58:31.533Z,10.40
2019-03-21T01:01:03.334Z,10.50
2019-03-21T01:03:32.537Z,10.50
2019-03-21T01:06:01.666Z,10.60
2019-03-21T01:08:30.813Z,10.60
2019-03-21T01:11:00.488Z,10.60
2019-03-21T01:13:32.597Z,10.60
2019-03-21T01:16:02.131Z,10.60
2019-03-21T01:18:31.723Z,10.50
2019-03-21T01:21:01.236Z,10.60
2019-03-21T01:23:30.788Z,10.50
2019-03-21T01:26:06.435Z,10.50
2019-03-21T01:28:35.951Z,10.50
2019-03-21T01:31:05.632Z,10.60
2019-03-21T01:33:36.441Z,10.50
2019-03-21T01:36:07.451Z,10.50
2019-03-21T01:38:36.986Z,10.50
2019-03-21T01:41:12.143Z,10.50
2019-03-21T01:43:41.680Z,10.50
2019-03-21T01:46:13.666Z,10.40
2019-03-21T01:48:42.945Z,10.50
2019-03-21T01:51:12.135Z,10.50
2019-03-21T01:53:41.321Z,10.50
2019-03-21T01:56:11.203Z,10.50
2019-03-21T01:58:40.761Z,10.60
2019-03-21T02:01:10.271Z,10.60
2019-03-21T02:03:40.054Z,10.60
2019-03-21T02:06:09.555Z,10.50
2019-03-21T02:08:39.134Z,10.40
2019-03-21T02:11:08.667Z,10.40
2019-03-21T02:13:38.212Z,10.50
2019-03-21T02:16:43.846Z,10.50
2019-03-21T02:19:12.957Z,10.60
2019-03-21T02:21:42.125Z,10.60
2019-03-21T02:24:11.681Z,10.50
2019-03-21T02:26:41.187Z,10.50
2019-03-21T02:29:10.692Z,10.50
2019-03-21T02:31:40.219Z,10.50
2019-03-21T02:34:09.720Z,10.50
2019-03-21T02:36:39.240Z,10.50
2019-03-21T02:39:08.790Z,10.50
2019-03-21T02:41:38.398Z,10.40
2019-03-21T02:47:48.340Z,10.40
2019-03-21T02:50:23.140Z,10.40
2019-03-21T02:52:52.191Z,10.40
2019-03-21T02:55:22.096Z,10.40
2019-03-21T02:57:51.252Z,10.40
2019-03-21T03:00:34.889Z,10.40
2019-03-21T03:03:04.962Z,10.40
2019-03-21T03:05:35.353Z,10.40
2019-03-21T03:08:05.862Z,10.40
2019-03-21T03:10:41.556Z,10.40
2019-03-21T03:13:11.071Z,10.30
2019-03-21T03:15:41.332Z,10.30
2019-03-21T03:18:15.769Z,10.20
2019-03-21T03:20:45.327Z,10.20
2019-03-21T03:23:14.830Z,10.20
2019-03-21T03:25:44.408Z,10.20
2019-03-21T03:28:22.477Z,10.10
2019-03-21T03:30:54.379Z,10.10
2019-03-21T03:33:23.896Z,10.10
2019-03-21T03:35:53.400Z,10.10
2019-03-21T03:38:22.967Z,10.00
2019-03-21T03:41:00.723Z,10.00
2019-03-21T03:43:30.251Z,10.10
2019-03-21T03:45:59.905Z,10.00
2019-03-21T03:48:29.681Z,10.00
2019-03-21T03:50:59.241Z,10.00
2019-03-21T03:53:28.765Z,10.00
2019-03-21T03:55:59.212Z,10.10
2019-03-21T03:58:43.390Z,10.10
2019-03-21T04:01:13.193Z,10.00
2019-03-21T04:03:42.681Z,9.90
2019-03-21T04:06:12.226Z,10.00
2019-03-21T04:08:41.753Z,9.90
2019-03-21T04:11:11.236Z,9.90
2019-03-21T04:13:44.694Z,10.00
2019-03-21T04:16:16.596Z,10.00
2019-03-21T04:18:46.088Z,10.00
2019-03-21T04:21:16.938Z,10.00
2019-03-21T04:23:46.442Z,10.00
2019-03-21T04:26:31.078Z,10.00
2019-03-21T04:29:00.634Z,10.00
2019-03-21T04:31:30.145Z,10.00
2019-03-21T04:34:02.515Z,10.00
2019-03-21T04:36:32.036Z,10.00
2019-03-21T04:39:01.582Z,10.00
2019-03-21T04:41:31.466Z,10.10
2019-03-21T04:44:13.187Z,10.00
2019-03-21T04:46:43.022Z,10.00
2019-03-21T04:49:12.585Z,10.00
2019-03-21T04:51:42.093Z,10.10
2019-03-21T04:54:11.644Z,10.00
2019-03-21T04:56:41.229Z,10.00
2019-03-21T04:59:19.512Z,10.00
2019-03-21T05:01:49.078Z,10.10
2019-03-21T05:04:18.579Z,10.10
2019-03-21T05:06:48.136Z,10.10
2019-03-21T05:09:18.327Z,10.10
2019-03-21T05:11:47.847Z,10.10
2019-03-21T05:14:17.388Z,10.10
2019-03-21T05:16:46.958Z,10.20
2019-03-21T05:19:16.515Z,10.20
2019-03-21T05:21:46.530Z,10.20
2019-03-21T05:24:16.059Z,10.20
2019-03-21T05:26:45.629Z,10.30
2019-03-21T05:29:15.165Z,10.30
2019-03-21T05:31:44.679Z,10.40
2019-03-21T05:34:14.179Z,10.40
2019-03-21T05:36:43.714Z,10.40
2019-03-21T05:39:13.227Z,10.30
2019-03-21T05:41:42.759Z,10.20
2019-03-21T05:44:27.167Z,10.30
2019-03-21T05:47:03.340Z,10.30
2019-03-21T05:49:33.199Z,10.30
2019-03-21T05:52:02.724Z,10.30
2019-03-21T05:54:32.261Z,10.30
2019-03-21T05:57:01.897Z,10.30
2019-03-21T05:59:31.271Z,10.20
2019-03-21T06:02:00.764Z,10.30
2019-03-21T06:04:30.878Z,10.30
2019-03-21T06:07:12.202Z,10.40
2019-03-21T06:09:41.759Z,10.40
2019-03-21T06:12:11.281Z,10.50
2019-03-21T06:14:58.372Z,10.60
2019-03-21T06:17:27.664Z,10.60
2019-03-21T06:19:59.791Z,10.60
2019-03-21T06:22:44.233Z,10.70
2019-03-21T06:25:31.434Z,10.70
2019-03-21T06:28:01.061Z,10.70
2019-03-21T06:30:30.265Z,10.70
2019-03-21T06:32:59.453Z,10.80
2019-03-21T06:35:28.910Z,10.90
2019-03-21T06:37:58.088Z,10.90
2019-03-21T06:40:27.253Z,11.00
2019-03-21T06:42:56.431Z,11.00
2019-03-21T06:45:25.636Z,11.00
2019-03-21T06:47:54.769Z,11.10
2019-03-21T06:50:23.992Z,11.10
2019-03-21T06:52:53.156Z,11.10
2019-03-21T06:55:22.642Z,11.00
2019-03-21T06:57:52.617Z,10.90
2019-03-21T07:00:21.838Z,11.00
2019-03-21T07:02:50.895Z,11.00
2019-03-21T07:05:20.202Z,11.00
2019-03-21T07:07:49.324Z,11.00
2019-03-21T07:10:19.066Z,11.00
2019-03-21T07:12:48.201Z,11.00
2019-03-21T07:15:17.448Z,11.00
2019-03-21T07:17:46.587Z,11.10
2019-03-21T07:20:15.767Z,11.10
2019-03-21T07:22:44.899Z,11.10
2019-03-21T07:25:15.718Z,11.20
2019-03-21T07:27:44.980Z,11.20
2019-03-21T07:30:15.337Z,11.10
2019-03-21T07:32:44.997Z,11.20
2019-03-21T07:35:14.465Z,11.20
2019-03-21T07:37:43.581Z,11.30
2019-03-21T07:40:14.139Z,11.20
2019-03-21T07:42:43.652Z,11.20
2019-03-21T07:45:13.279Z,11.20
2019-03-21T07:47:42.406Z,11.10
2019-03-21T07:50:13.944Z,11.20
2019-03-21T07:52:43.134Z,11.20
2019-03-21T07:55:13.152Z,11.10
2019-03-21T07:57:42.649Z,11.20
2019-03-21T08:00:17.619Z,11.20
2019-03-21T08:02:46.972Z,11.20
2019-03-21T08:05:17.001Z,11.30
2019-03-21T08:07:46.151Z,11.30
2019-03-21T08:10:15.614Z,11.40
2019-03-21T08:12:45.130Z,11.50
2019-03-21T08:15:15.957Z,11.60
2019-03-21T08:17:45.136Z,11.70
2019-03-21T08:20:15.561Z,11.80
2019-03-21T08:22:46.250Z,11.80
2019-03-21T08:25:15.750Z,11.90
2019-03-21T08:27:45.168Z,12.00
2019-03-21T08:30:23.248Z,11.90
2019-03-21T08:32:52.502Z,12.00
2019-03-21T08:35:21.651Z,12.10
2019-03-21T08:37:51.071Z,12.10
2019-03-21T08:40:20.261Z,12.20
2019-03-21T08:42:49.371Z,12.10
2019-03-21T08:45:18.725Z,12.20
2019-03-21T08:47:47.879Z,12.20
2019-03-21T08:50:18.256Z,12.30
2019-03-21T08:52:47.410Z,12.40
2019-03-21T08:55:16.916Z,12.50
2019-03-21T08:57:46.062Z,12.60
2019-03-21T09:00:19.717Z,12.90
2019-03-21T11:05:00.818Z,13.20
2019-03-21T11:07:29.965Z,13.10
2019-03-21T11:09:59.074Z,12.90
2019-03-21T11:12:28.335Z,12.90
2019-03-21T11:14:57.440Z,13.00
2019-03-21T11:17:26.928Z,13.00
2019-03-21T17:26:30.353Z,12.90
2019-03-21T17:28:59.635Z,12.90
2019-03-21T17:31:28.788Z,12.80
2019-03-21T17:33:57.891Z,12.70
2019-03-21T17:36:27.363Z,12.70
2019-03-21T17:38:56.567Z,12.70
2019-03-21T17:41:25.665Z,12.70
2019-03-21T17:43:54.958Z,12.50
2019-03-21T17:46:25.652Z,12.40
2019-03-21T17:48:54.782Z,12.40
2019-03-21T17:51:24.136Z,12.30
2019-03-21T17:53:53.403Z,12.30
2019-03-21T17:56:22.564Z,12.20
2019-03-21T17:58:51.812Z,12.20
2019-03-21T18:01:21.653Z,12.10
2019-03-21T18:03:52.353Z,12.10
2019-03-21T18:06:22.215Z,11.90
2019-03-21T18:08:51.479Z,11.90
2019-03-21T18:11:20.709Z,11.80
2019-03-21T18:13:49.861Z,11.80
2019-03-21T18:16:19.363Z,11.70
2019-03-21T18:18:50.637Z,11.70
2019-03-21T18:21:25.460Z,11.60
2019-03-21T18:23:56.286Z,11.60
2019-03-21T18:26:25.602Z,11.50
2019-03-21T18:28:54.818Z,11.50
2019-03-21T18:31:24.022Z,11.50
2019-03-21T18:33:53.261Z,11.50
2019-03-21T18:36:22.784Z,11.50
2019-03-21T18:38:58.755Z,11.40
2019-03-21T18:41:22.661Z,11.40
2019-03-21T18:43:53.703Z,11.30
2019-03-21T18:46:22.487Z,11.20
2019-03-21T18:48:52.701Z,11.10
2019-03-21T18:51:22.013Z,11.00
2019-03-21T18:53:51.251Z,11.00
2019-03-21T18:56:20.413Z,10.90
2019-03-21T18:58:49.582Z,10.90
2019-03-21T19:01:18.873Z,10.80
2019-03-21T19:03:48.341Z,10.70
2019-03-21T19:06:17.822Z,10.70
2019-03-21T19:08:48.385Z,10.70
2019-03-21T19:11:17.577Z,10.70
2019-03-21T19:13:46.684Z,10.60
2019-03-21T19:16:16.560Z,10.60
2019-03-21T19:18:46.428Z,10.60
2019-03-21T19:21:15.640Z,10.50
2019-03-21T19:23:44.789Z,10.50
2019-03-21T19:26:14.049Z,10.40
2019-03-21T19:28:43.232Z,10.40
2019-03-21T19:31:12.383Z,10.40
2019-03-21T19:33:41.875Z,10.40
2019-03-21T19:36:10.999Z,10.30
2019-03-21T19:38:40.164Z,10.40
2019-03-21T19:41:09.627Z,10.40
2019-03-21T19:43:38.776Z,10.30
2019-03-21T19:46:07.944Z,10.30
2019-03-21T19:48:37.193Z,10.40
2019-03-21T19:51:07.850Z,10.30
2019-03-21T19:53:37.414Z,10.30
2019-03-21T19:56:08.778Z,10.30
2019-03-21T19:58:37.386Z,10.30
2019-03-21T20:01:06.628Z,10.30
2019-03-21T20:03:35.899Z,10.30
2019-03-21T20:06:05.018Z,10.20
2019-03-21T20:08:34.178Z,10.10
2019-03-21T20:11:03.783Z,10.10
2019-03-21T20:13:32.908Z,10.10
2019-03-21T20:16:02.102Z,10.10
2019-03-21T20:18:31.751Z,10.00
2019-03-21T20:21:01.235Z,10.00
2019-03-21T20:23:30.353Z,9.90
2019-03-21T20:26:00.368Z,9.90
2019-03-21T20:28:30.186Z,9.80
2019-03-21T20:30:59.398Z,9.80
2019-03-21T20:33:29.049Z,9.70
2019-03-21T20:35:58.428Z,9.70
2019-03-21T20:38:27.544Z,9.70
2019-03-21T20:40:56.779Z,9.70
2019-03-21T20:43:26.002Z,9.70
2019-03-21T20:45:55.090Z,9.70
2019-03-21T20:48:29.239Z,9.70
2019-03-21T20:50:59.256Z,9.60
2019-03-21T20:53:28.355Z,9.60
2019-03-21T20:55:58.559Z,9.60
2019-03-21T20:58:27.837Z,9.60
2019-03-21T21:01:03.733Z,9.50
2019-03-21T21:03:32.860Z,9.50
2019-03-21T21:06:02.338Z,9.50
2019-03-21T21:08:31.563Z,9.50
2019-03-21T21:11:01.742Z,9.50
2019-03-21T21:13:32.360Z,9.40
2019-03-21T21:16:02.518Z,9.40
2019-03-21T21:18:33.052Z,9.40
2019-03-21T21:21:02.224Z,9.30
2019-03-21T21:23:31.767Z,9.20
2019-03-21T21:26:05.522Z,9.20
2019-03-21T21:28:32.222Z,9.20
2019-03-21T21:31:01.450Z,9.20
2019-03-21T21:33:30.807Z,9.20
2019-03-21T21:36:00.063Z,9.10
2019-03-21T21:38:29.421Z,9.10
2019-03-21T21:40:58.682Z,9.00
2019-03-21T21:43:27.846Z,9.10
2019-03-21T21:45:56.995Z,9.00
2019-03-21T21:48:26.538Z,9.00
2019-03-21T21:50:55.620Z,9.00
2019-03-21T21:53:24.731Z,9.00
2019-03-21T21:55:53.928Z,9.00
2019-03-21T21:58:23.067Z,8.90
2019-03-21T22:00:52.293Z,8.90
2019-03-21T22:03:21.599Z,8.80
2019-03-21T22:05:51.800Z,8.80
2019-03-21T22:08:20.965Z,8.80
2019-03-21T22:10:50.143Z,8.80
2019-03-21T22:13:19.306Z,8.80
2019-03-21T22:15:48.497Z,8.80
2019-03-21T22:18:17.669Z,8.80
2019-03-21T22:20:46.828Z,8.80
2019-03-21T22:23:15.940Z,8.80
2019-03-21T22:25:45.614Z,8.70
2019-03-21T22:28:14.785Z,8.70
2019-03-21T22:30:43.906Z,8.70
2019-03-21T22:33:13.190Z,8.70
2019-03-21T22:35:42.450Z,8.70
2019-03-21T22:38:11.727Z,8.70
2019-03-21T22:40:40.974Z,8.60
2019-03-21T22:43:10.096Z,8.60
2019-03-21T22:45:39.234Z,8.50
2019-03-21T22:48:08.425Z,8.50
2019-03-21T22:50:37.581Z,8.50
2019-03-21T22:53:06.718Z,8.50
2019-03-21T22:55:35.994Z,8.40
2019-03-21T22:58:05.119Z,8.40
2019-03-21T23:00:42.678Z,8.40
2019-03-21T23:03:12.453Z,8.30
2019-03-21T23:05:41.914Z,8.30
2019-03-21T23:08:11.106Z,8.30
2019-03-21T23:10:40.253Z,8.30
2019-03-21T23:13:09.392Z,8.30
2019-03-21T23:15:38.615Z,8.20
2019-03-21T23:18:07.786Z,8.20
2019-03-21T23:20:36.943Z,8.20
2019-03-21T23:23:06.145Z,8.20
2019-03-21T23:25:35.269Z,8.20
2019-03-21T23:28:05.031Z,8.20
2019-03-21T23:30:34.249Z,8.20
2019-03-21T23:33:05.618Z,8.20
2019-03-21T23:35:34.088Z,8.10
2019-03-21T23:38:03.344Z,8.10
2019-03-21T23:40:32.606Z,8.10
2019-03-21T23:43:01.745Z,8.00
2019-03-21T23:45:31.048Z,8.00
2019-03-21T23:48:00.171Z,8.00
2019-03-21T23:50:29.295Z,8.00
2019-03-21T23:52:58.493Z,8.00
2019-03-21T23:55:27.620Z,8.10
2019-03-21T23:57:56.735Z,8.00
